X  Sluiten METAR luchtvaart weer gegevens      EHRD Rotterdam The Hague Airport
Temperatuur
8°C Temperatuur
3°C Dauwpunt
71% Vochtigheid



Wind
35 KM/U
22 MPH
10 M/S
19 KTS



170°
Zuid
Huidig weer

Grotendeels bewolkt Grotendeels bewolkt
Luchtdruk 998.98 (hPa) - 29.5 (inHg)
Zicht 6 (mijl) - 9.7 (km)
Vliegveld
Vliegveld code EHRD

Locatie : Rotterdam The Hague Airport
Afstand: 19 (km)

Metar:
EHRD 011225Z AUTO 17019G30KT 130V200 9999 BKN032 OVC036 08/03 Q0999 REDZ NOSIG

Tijd: 01-03-2024 12:25 CET